createdAt,value
2023-01-13T00:00:06.902Z,90.77
2023-01-13T00:01:10.758Z,90.97
2023-01-13T00:02:07.300Z,90.81
2023-01-13T00:03:03.847Z,90.51
2023-01-13T00:04:01.136Z,90.34
2023-01-13T00:04:57.770Z,90.72
2023-01-13T00:05:54.285Z,90.74
2023-01-13T00:06:50.798Z,90.56
2023-01-13T00:07:49.257Z,91.07
2023-01-13T00:08:48.410Z,90.80
2023-01-13T00:09:44.867Z,90.68
2023-01-13T00:10:41.315Z,90.66
2023-01-13T00:11:37.806Z,90.91
2023-01-13T00:12:34.264Z,91.64
2023-01-13T00:13:33.001Z,91.73
2023-01-13T00:14:30.202Z,91.48
2023-01-13T00:15:26.785Z,91.13
2023-01-13T00:16:23.337Z,90.57
2023-01-13T00:17:19.807Z,90.95
2023-01-13T00:18:16.233Z,91.57
2023-01-13T00:19:12.738Z,91.42
2023-01-13T00:20:10.122Z,91.95
2023-01-13T00:21:07.959Z,92.00
2023-01-13T00:22:04.457Z,91.32
2023-01-13T00:23:01.462Z,91.69
2023-01-13T00:23:57.909Z,91.39
2023-01-13T00:24:54.473Z,91.47
2023-01-13T00:25:50.912Z,91.71
2023-01-13T00:26:47.625Z,91.95
2023-01-13T00:27:44.117Z,91.66
2023-01-13T00:28:40.588Z,91.73
2023-01-13T00:29:37.035Z,91.70
2023-01-13T00:30:34.187Z,92.16
2023-01-13T00:31:30.758Z,92.81
2023-01-13T00:32:27.654Z,92.73
2023-01-13T00:33:24.420Z,92.28
2023-01-13T00:34:21.002Z,91.55
2023-01-13T00:35:17.462Z,91.09
2023-01-13T00:36:14.909Z,90.87
2023-01-13T00:37:14.667Z,90.35
2023-01-13T00:38:11.096Z,91.51
2023-01-13T00:39:07.529Z,91.81
2023-01-13T00:40:04.820Z,92.20
2023-01-13T00:41:02.568Z,92.77
2023-01-13T00:42:17.809Z,93.46
2023-01-13T00:43:23.062Z,93.86
2023-01-13T00:44:19.578Z,93.71
2023-01-13T00:45:16.104Z,94.44
2023-01-13T00:46:13.826Z,94.25
2023-01-13T00:47:10.317Z,94.72
2023-01-13T00:48:06.787Z,94.74
2023-01-13T00:49:03.269Z,94.85
2023-01-13T00:49:59.777Z,94.97
2023-01-13T00:50:56.994Z,94.97
2023-01-13T00:51:53.436Z,95.50
2023-01-13T00:52:49.908Z,95.88
2023-01-13T00:53:48.012Z,95.74
2023-01-13T00:54:44.514Z,95.46
2023-01-13T00:55:40.972Z,96.06
2023-01-13T00:56:40.526Z,95.89
2023-01-13T00:57:37.501Z,96.56
2023-01-13T00:58:34.833Z,96.19
2023-01-13T00:59:31.253Z,95.87
2023-01-13T01:00:27.712Z,95.85
2023-01-13T01:01:24.693Z,95.34
2023-01-13T01:02:21.315Z,95.68
2023-01-13T01:03:17.812Z,94.83
2023-01-13T01:04:14.233Z,94.02
2023-01-13T01:05:11.098Z,93.41
2023-01-13T01:06:07.538Z,92.87
2023-01-13T01:07:03.989Z,92.26
2023-01-13T01:08:00.477Z,92.00
2023-01-13T01:08:57.190Z,91.54
2023-01-13T01:09:53.685Z,91.92
2023-01-13T01:10:50.180Z,91.73
2023-01-13T01:11:46.614Z,90.89
2023-01-13T01:12:43.159Z,90.91
2023-01-13T01:13:39.742Z,91.67
2023-01-13T01:14:36.216Z,91.79
2023-01-13T01:15:32.829Z,91.69
2023-01-13T01:16:30.178Z,92.26
2023-01-13T01:17:27.912Z,92.57
2023-01-13T01:18:24.377Z,92.58
2023-01-13T01:19:20.808Z,92.87
2023-01-13T01:20:17.272Z,93.96
2023-01-13T01:21:14.522Z,94.86
2023-01-13T01:22:11.025Z,94.66
2023-01-13T01:23:07.455Z,95.65
2023-01-13T01:24:04.398Z,95.37
2023-01-13T01:25:00.974Z,95.40
2023-01-13T01:26:01.380Z,95.23
2023-01-13T01:26:57.898Z,95.63
2023-01-13T01:27:54.385Z,95.69
2023-01-13T01:28:50.986Z,95.36
2023-01-13T01:29:47.700Z,95.95
2023-01-13T01:30:44.170Z,95.94
2023-01-13T01:31:40.638Z,95.72
2023-01-13T01:32:37.097Z,95.64
2023-01-13T01:33:33.662Z,95.66
2023-01-13T01:34:30.223Z,95.22
2023-01-13T01:35:26.719Z,95.34
2023-01-13T01:36:26.178Z,95.01
2023-01-13T01:37:22.648Z,94.84
2023-01-13T01:38:21.238Z,95.33
2023-01-13T01:39:17.717Z,94.81
2023-01-13T01:40:14.205Z,94.45
2023-01-13T01:41:31.678Z,93.66
2023-01-13T01:42:46.568Z,93.27
2023-01-13T01:44:04.074Z,93.17
2023-01-13T01:45:12.139Z,92.35
2023-01-13T01:46:08.622Z,92.67
2023-01-13T01:47:05.240Z,92.44
2023-01-13T01:48:04.375Z,92.05
2023-01-13T01:49:03.497Z,91.93
2023-01-13T01:50:02.020Z,92.39
2023-01-13T01:50:58.485Z,92.28
2023-01-13T01:52:02.524Z,92.38
2023-01-13T01:53:02.662Z,92.22
2023-01-13T01:54:02.077Z,92.53
2023-01-13T01:55:16.419Z,92.06
2023-01-13T01:56:12.976Z,92.47
2023-01-13T01:57:10.241Z,92.07
2023-01-13T01:58:21.887Z,92.11
2023-01-13T01:59:18.687Z,91.91
2023-01-13T02:00:15.414Z,92.57
2023-01-13T02:01:12.592Z,92.32
2023-01-13T02:02:09.611Z,92.38
2023-01-13T02:03:07.335Z,92.78
2023-01-13T02:04:11.102Z,92.91
2023-01-13T02:05:07.722Z,92.96
2023-01-13T02:06:04.276Z,92.28
2023-01-13T02:07:01.419Z,92.21
2023-01-13T02:07:59.030Z,92.56
2023-01-13T02:08:55.617Z,92.77
2023-01-13T02:09:52.881Z,92.71
2023-01-13T02:10:53.017Z,92.93
2023-01-13T02:12:07.781Z,92.40
2023-01-13T02:13:06.340Z,92.69
2023-01-13T02:14:02.864Z,92.32
2023-01-13T02:15:04.593Z,92.75
2023-01-13T02:16:10.081Z,92.39
2023-01-13T02:17:15.393Z,92.31
2023-01-13T02:18:11.944Z,92.34
2023-01-13T02:19:08.380Z,92.35
2023-01-13T02:20:07.902Z,92.80
2023-01-13T02:21:19.719Z,92.42
2023-01-13T02:22:22.518Z,92.43
2023-01-13T02:23:37.455Z,92.45
2023-01-13T02:24:53.905Z,92.49
2023-01-13T02:26:03.398Z,92.13
2023-01-13T02:27:06.025Z,92.02
2023-01-13T02:28:12.704Z,92.37
2023-01-13T02:29:49.918Z,91.91
2023-01-13T02:31:28.599Z,92.22
2023-01-13T02:32:27.819Z,92.19
2023-01-13T02:33:27.306Z,92.15
2023-01-13T02:34:33.872Z,91.96
2023-01-13T02:35:39.553Z,92.34
2023-01-13T02:36:44.836Z,92.08
2023-01-13T02:37:45.569Z,92.13
2023-01-13T02:38:50.223Z,91.35
2023-01-13T02:39:59.621Z,91.08
2023-01-13T02:41:36.252Z,90.69
2023-01-13T02:42:52.139Z,90.10
2023-01-13T02:44:09.314Z,89.95
2023-01-13T02:45:06.026Z,90.68
2023-01-13T02:46:05.268Z,90.86
2023-01-13T02:47:01.858Z,90.71
2023-01-13T02:47:59.448Z,89.95
2023-01-13T02:48:57.979Z,89.59
2023-01-13T02:50:00.427Z,90.43
2023-01-13T02:50:59.879Z,90.10
2023-01-13T02:52:00.480Z,90.09
2023-01-13T02:53:03.431Z,90.16
2023-01-13T02:54:06.609Z,90.64
2023-01-13T02:55:08.293Z,90.50
2023-01-13T02:56:05.888Z,90.98
2023-01-13T02:57:03.020Z,90.87
2023-01-13T02:58:01.130Z,91.40
2023-01-13T02:58:57.952Z,91.02
2023-01-13T02:59:55.702Z,90.62
2023-01-13T03:00:52.532Z,90.06
2023-01-13T03:01:50.272Z,90.88
2023-01-13T03:02:48.122Z,91.08
2023-01-13T03:03:44.889Z,91.41
2023-01-13T03:04:49.015Z,90.76
2023-01-13T03:05:47.737Z,90.00
2023-01-13T03:06:59.744Z,89.96
2023-01-13T03:08:17.869Z,89.68
2023-01-13T03:09:15.073Z,90.31
2023-01-13T03:10:31.899Z,90.99
2023-01-13T03:11:32.686Z,90.19
2023-01-13T03:12:52.408Z,90.03
2023-01-13T03:14:13.101Z,90.67
2023-01-13T03:15:16.106Z,90.80
2023-01-13T03:16:31.511Z,91.14
2023-01-13T03:17:40.153Z,91.45
2023-01-13T03:18:52.568Z,91.73
2023-01-13T03:19:49.080Z,91.76
2023-01-13T03:20:54.266Z,91.31
2023-01-13T03:21:56.956Z,91.30
2023-01-13T03:23:05.333Z,91.47
2023-01-13T03:24:13.895Z,91.39
2023-01-13T03:25:22.669Z,91.49
2023-01-13T03:26:45.499Z,92.01
2023-01-13T03:27:45.139Z,91.86
2023-01-13T03:28:49.043Z,91.76
2023-01-13T03:29:50.868Z,91.29
2023-01-13T03:30:53.613Z,92.49
2023-01-13T03:31:56.185Z,92.13
2023-01-13T03:32:55.823Z,91.83
2023-01-13T03:33:56.332Z,91.21
2023-01-13T03:34:55.680Z,91.90
2023-01-13T03:35:55.594Z,92.08
2023-01-13T03:36:54.389Z,91.95
2023-01-13T03:37:54.394Z,91.66
2023-01-13T03:38:53.190Z,92.20
2023-01-13T03:39:53.213Z,91.88
2023-01-13T03:40:54.884Z,91.39
2023-01-13T03:41:57.279Z,91.50
2023-01-13T03:43:14.270Z,91.76
2023-01-13T03:44:34.135Z,91.22
2023-01-13T03:45:32.060Z,91.12
2023-01-13T03:47:04.247Z,90.79
2023-01-13T03:48:03.064Z,90.92
2023-01-13T03:49:03.099Z,90.65
2023-01-13T03:50:02.443Z,90.85
2023-01-13T03:51:04.959Z,90.74
2023-01-13T03:52:04.161Z,91.27
2023-01-13T03:53:15.759Z,90.50
2023-01-13T03:54:14.197Z,90.36
2023-01-13T03:55:15.777Z,90.29
2023-01-13T03:56:15.747Z,89.59
2023-01-13T03:57:14.589Z,90.07
2023-01-13T03:58:31.323Z,90.60
2023-01-13T03:59:31.083Z,91.49
2023-01-13T04:00:31.794Z,91.75
2023-01-13T04:01:42.477Z,91.65
2023-01-13T04:03:00.793Z,92.35
2023-01-13T04:04:01.896Z,92.66
2023-01-13T04:05:00.010Z,92.32
2023-01-13T04:06:00.045Z,92.18
2023-01-13T04:07:19.566Z,91.53
2023-01-13T04:08:21.724Z,91.79
2023-01-13T04:09:23.604Z,91.60
2023-01-13T04:10:23.821Z,91.94
2023-01-13T04:11:40.549Z,92.07
2023-01-13T04:13:00.896Z,91.74
2023-01-13T04:13:58.217Z,92.38
2023-01-13T04:14:55.905Z,92.99
2023-01-13T04:15:52.529Z,93.47
2023-01-13T04:16:49.209Z,93.53
2023-01-13T04:17:45.655Z,93.42
2023-01-13T04:18:42.138Z,93.91
2023-01-13T04:19:38.575Z,94.01
2023-01-13T04:20:37.876Z,94.01
2023-01-13T04:21:35.190Z,93.85
2023-01-13T04:22:31.678Z,93.86
2023-01-13T04:23:28.685Z,94.15
2023-01-13T04:24:25.333Z,94.23
2023-01-13T04:25:21.798Z,94.29
2023-01-13T04:26:19.721Z,95.04
2023-01-13T04:27:16.217Z,95.01
2023-01-13T04:28:13.208Z,95.16
2023-01-13T04:29:09.757Z,95.08
2023-01-13T04:30:06.909Z,94.59
2023-01-13T04:31:03.484Z,94.35
2023-01-13T04:31:59.990Z,94.18
2023-01-13T04:32:56.535Z,94.26
2023-01-13T04:33:52.985Z,94.49
2023-01-13T04:34:49.537Z,93.44
2023-01-13T04:35:46.563Z,93.99
2023-01-13T04:36:43.650Z,93.84
2023-01-13T04:37:40.193Z,92.69
2023-01-13T04:38:36.909Z,93.14
2023-01-13T04:39:33.428Z,92.95
2023-01-13T04:40:29.940Z,93.37
2023-01-13T04:41:26.385Z,93.69
2023-01-13T04:42:22.905Z,93.51
2023-01-13T04:43:19.461Z,92.52
2023-01-13T04:44:15.959Z,92.46
2023-01-13T04:45:12.822Z,91.47
2023-01-13T04:46:09.332Z,91.47
2023-01-13T04:47:05.792Z,91.71
2023-01-13T04:48:02.530Z,92.17
2023-01-13T04:48:59.075Z,93.32
2023-01-13T04:49:55.901Z,93.25
2023-01-13T04:50:52.403Z,92.96
2023-01-13T04:51:48.921Z,93.03
2023-01-13T04:52:48.750Z,93.63
2023-01-13T04:53:46.840Z,93.79
2023-01-13T04:54:44.464Z,94.08
2023-01-13T04:55:40.919Z,94.13
2023-01-13T04:56:37.417Z,94.57
2023-01-13T04:57:35.027Z,94.52
2023-01-13T04:58:31.518Z,94.82
2023-01-13T04:59:27.998Z,94.63
2023-01-13T05:00:24.525Z,94.81
2023-01-13T05:01:21.561Z,94.71
2023-01-13T05:02:21.224Z,94.76
2023-01-13T05:03:18.752Z,94.63
2023-01-13T05:04:15.642Z,95.09
2023-01-13T05:05:12.360Z,94.95
2023-01-13T05:06:08.902Z,95.19
2023-01-13T05:07:05.659Z,95.09
2023-01-13T05:08:02.136Z,94.66
2023-01-13T05:08:58.685Z,94.08
2023-01-13T05:09:55.216Z,93.38
2023-01-13T05:10:51.810Z,93.01
2023-01-13T05:12:06.645Z,92.30
2023-01-13T05:13:21.764Z,92.41
2023-01-13T05:14:36.630Z,92.83
2023-01-13T05:15:51.977Z,92.99
2023-01-13T05:17:02.609Z,92.04
2023-01-13T05:17:59.797Z,91.11
2023-01-13T05:18:56.405Z,90.99
2023-01-13T05:19:52.991Z,91.00
2023-01-13T05:20:49.952Z,92.23
2023-01-13T05:22:04.853Z,92.54
2023-01-13T05:23:19.855Z,92.71
2023-01-13T05:24:34.717Z,92.77
2023-01-13T05:25:31.386Z,93.04
2023-01-13T05:26:27.839Z,93.39
2023-01-13T05:27:24.279Z,94.11
2023-01-13T05:28:20.891Z,93.42
2023-01-13T05:29:17.334Z,93.90
2023-01-13T05:30:14.282Z,94.00
2023-01-13T05:31:12.132Z,93.69
2023-01-13T05:32:09.051Z,93.88
2023-01-13T05:33:05.529Z,93.90
2023-01-13T05:34:02.015Z,93.53
2023-01-13T05:34:58.475Z,93.99
2023-01-13T05:35:54.970Z,93.83
2023-01-13T05:36:51.502Z,93.45
2023-01-13T05:37:48.337Z,93.91
2023-01-13T05:38:44.793Z,93.73
2023-01-13T05:39:59.820Z,93.60
2023-01-13T05:41:17.119Z,93.33
2023-01-13T05:42:32.070Z,94.14
2023-01-13T05:43:29.111Z,93.81
2023-01-13T05:44:25.680Z,93.77
2023-01-13T05:45:22.300Z,94.47
2023-01-13T05:46:18.766Z,94.08
2023-01-13T05:47:15.189Z,93.96
2023-01-13T05:48:11.591Z,94.07
2023-01-13T05:49:08.102Z,94.23
2023-01-13T05:50:05.186Z,94.14
2023-01-13T05:51:02.369Z,94.22
2023-01-13T05:51:58.862Z,94.26
2023-01-13T05:52:55.371Z,94.34
2023-01-13T05:53:52.375Z,94.64
2023-01-13T05:54:48.836Z,94.72
2023-01-13T05:55:45.405Z,94.72
2023-01-13T05:56:41.906Z,94.93
2023-01-13T05:57:38.396Z,95.10
2023-01-13T05:58:34.909Z,94.59
2023-01-13T05:59:31.352Z,94.59
2023-01-13T06:00:27.838Z,93.94
2023-01-13T06:01:24.343Z,94.38
2023-01-13T06:02:20.936Z,94.85
2023-01-13T06:03:20.104Z,95.13
2023-01-13T06:04:16.742Z,94.94
2023-01-13T06:05:13.237Z,95.54
2023-01-13T06:06:09.707Z,95.35
2023-01-13T06:07:06.223Z,94.55
2023-01-13T06:08:03.851Z,95.25
2023-01-13T06:09:00.274Z,95.27
2023-01-13T06:09:56.722Z,95.81
2023-01-13T06:10:53.260Z,96.07
2023-01-13T06:11:49.736Z,95.74
2023-01-13T06:12:46.177Z,95.32
2023-01-13T06:13:43.414Z,96.01
2023-01-13T06:14:43.116Z,95.20
2023-01-13T06:15:39.626Z,95.16
2023-01-13T06:16:36.240Z,94.76
2023-01-13T06:17:32.786Z,95.37
2023-01-13T06:18:29.383Z,95.23
2023-01-13T06:19:25.971Z,95.44
2023-01-13T06:20:22.701Z,95.08
2023-01-13T06:21:19.359Z,95.18
2023-01-13T06:22:17.300Z,95.13
2023-01-13T06:23:13.980Z,95.09
2023-01-13T06:24:10.943Z,94.89
2023-01-13T06:25:14.133Z,94.90
2023-01-13T06:26:16.199Z,94.82
2023-01-13T06:27:14.546Z,95.06
2023-01-13T06:28:11.155Z,94.69
2023-01-13T06:29:09.124Z,94.95
2023-01-13T06:30:05.851Z,94.70
2023-01-13T06:31:04.718Z,94.47
2023-01-13T06:32:03.625Z,94.80
2023-01-13T06:33:02.571Z,94.11
2023-01-13T06:34:02.816Z,94.13
2023-01-13T06:35:05.304Z,94.37
2023-01-13T06:36:04.486Z,94.24
2023-01-13T06:37:01.547Z,94.34
2023-01-13T06:38:00.853Z,94.86
2023-01-13T06:38:58.841Z,93.88
2023-01-13T06:39:58.604Z,93.91
2023-01-13T06:40:55.285Z,94.10
2023-01-13T06:42:12.755Z,93.50
2023-01-13T06:43:16.599Z,93.98
2023-01-13T06:44:13.706Z,94.00
2023-01-13T06:45:10.466Z,93.62
2023-01-13T06:46:06.970Z,93.83
2023-01-13T06:47:04.029Z,94.51
2023-01-13T06:48:00.784Z,94.04
2023-01-13T06:48:57.249Z,94.13
2023-01-13T06:49:53.702Z,93.61
2023-01-13T06:50:50.226Z,93.58
2023-01-13T06:51:46.687Z,93.71
2023-01-13T06:52:43.396Z,93.06
2023-01-13T06:53:39.912Z,93.51
2023-01-13T06:54:36.431Z,93.73
2023-01-13T06:55:33.354Z,93.63
2023-01-13T06:56:29.863Z,94.49
2023-01-13T06:57:26.354Z,94.22
2023-01-13T06:58:22.874Z,94.05
2023-01-13T06:59:19.361Z,93.49
2023-01-13T07:00:16.133Z,93.42
2023-01-13T07:01:12.695Z,93.41
2023-01-13T07:02:09.328Z,93.51
2023-01-13T07:03:13.483Z,94.07
2023-01-13T07:04:13.754Z,93.68
2023-01-13T07:05:10.394Z,93.02
2023-01-13T07:06:07.067Z,92.88
2023-01-13T07:07:03.584Z,92.72
2023-01-13T07:08:00.138Z,92.25
2023-01-13T07:08:56.667Z,92.51
2023-01-13T07:09:53.090Z,92.41
2023-01-13T07:10:49.700Z,92.02
2023-01-13T07:11:46.823Z,92.59
2023-01-13T07:13:02.147Z,92.20
2023-01-13T07:14:17.119Z,92.34
2023-01-13T07:15:19.330Z,92.48
2023-01-13T07:16:15.838Z,92.05
2023-01-13T07:17:12.339Z,92.46
2023-01-13T07:18:08.813Z,91.96
2023-01-13T07:19:05.244Z,91.45
2023-01-13T07:20:01.759Z,91.50
2023-01-13T07:20:59.389Z,90.96
2023-01-13T07:21:55.889Z,90.80
2023-01-13T07:22:55.552Z,90.84
2023-01-13T07:23:52.263Z,90.89
2023-01-13T07:24:48.709Z,90.41
2023-01-13T07:25:45.195Z,90.37
2023-01-13T07:26:41.816Z,90.16
2023-01-13T07:27:38.552Z,90.65
2023-01-13T07:28:35.406Z,90.01
2023-01-13T07:29:32.169Z,89.97
2023-01-13T07:30:28.699Z,90.34
2023-01-13T07:31:26.066Z,89.73
2023-01-13T07:32:22.607Z,90.15
2023-01-13T07:33:19.222Z,89.47
2023-01-13T07:34:15.795Z,89.02
2023-01-13T07:35:12.292Z,90.08
2023-01-13T07:36:09.197Z,89.79
2023-01-13T07:37:05.721Z,90.59
2023-01-13T07:38:02.278Z,90.35
2023-01-13T07:39:02.052Z,90.24
2023-01-13T07:39:58.492Z,89.93
2023-01-13T07:40:55.080Z,90.15
2023-01-13T07:42:10.374Z,89.15
2023-01-13T07:43:25.303Z,90.06
2023-01-13T07:44:21.838Z,89.71
2023-01-13T07:45:18.281Z,90.07
2023-01-13T07:46:15.015Z,90.00
2023-01-13T07:47:11.589Z,89.92
2023-01-13T07:48:08.058Z,90.09
2023-01-13T07:49:04.923Z,88.85
2023-01-13T07:50:01.388Z,90.08
2023-01-13T07:51:01.568Z,90.22
2023-01-13T07:51:57.997Z,90.93
2023-01-13T07:52:57.695Z,90.80
2023-01-13T07:53:54.384Z,90.84
2023-01-13T07:54:50.922Z,89.76
2023-01-13T07:55:47.599Z,90.03
2023-01-13T07:56:44.073Z,89.19
2023-01-13T07:57:40.731Z,89.93
2023-01-13T07:58:37.682Z,89.64
2023-01-13T07:59:34.220Z,89.40
2023-01-13T08:00:30.740Z,89.07
2023-01-13T08:01:28.165Z,89.15
2023-01-13T08:02:25.050Z,89.46
2023-01-13T08:03:22.080Z,89.46
2023-01-13T08:04:18.690Z,89.93
2023-01-13T08:05:15.296Z,89.54
2023-01-13T08:06:12.181Z,89.13
2023-01-13T08:07:08.761Z,88.94
2023-01-13T08:08:05.319Z,89.01
2023-01-13T08:09:01.877Z,89.15
2023-01-13T08:09:58.360Z,88.91
2023-01-13T08:10:54.864Z,88.64
2023-01-13T08:12:13.777Z,88.16
2023-01-13T08:13:20.278Z,87.38
2023-01-13T08:14:16.954Z,87.08
2023-01-13T08:15:13.526Z,86.48
2023-01-13T08:16:11.094Z,85.58
2023-01-13T08:17:08.127Z,84.22
2023-01-13T08:18:04.621Z,84.76
2023-01-13T08:19:01.107Z,84.54
2023-01-13T08:19:57.646Z,85.94
2023-01-13T08:20:54.315Z,85.39
2023-01-13T08:21:50.764Z,86.52
2023-01-13T08:22:47.290Z,86.70
2023-01-13T08:23:44.596Z,87.11
2023-01-13T08:24:41.098Z,86.38
2023-01-13T08:25:37.624Z,86.48
2023-01-13T08:26:34.148Z,87.30
2023-01-13T08:27:30.622Z,86.78
2023-01-13T08:28:27.208Z,86.58
2023-01-13T08:29:23.739Z,86.62
2023-01-13T08:30:20.528Z,86.04
2023-01-13T08:31:20.093Z,84.05
2023-01-13T08:32:16.820Z,83.25
2023-01-13T08:33:13.373Z,83.67
2023-01-13T08:34:09.854Z,83.42
2023-01-13T08:35:06.782Z,83.03
2023-01-13T08:36:04.404Z,83.29
2023-01-13T08:37:00.906Z,83.42
2023-01-13T08:37:58.019Z,83.07
2023-01-13T08:38:54.618Z,82.72
2023-01-13T08:39:51.137Z,83.97
2023-01-13T08:40:47.669Z,83.52
2023-01-13T08:41:56.603Z,83.79
2023-01-13T08:42:55.063Z,83.41
2023-01-13T08:43:53.452Z,83.31
2023-01-13T08:44:49.917Z,83.29
2023-01-13T08:45:46.570Z,82.81
2023-01-13T08:46:43.763Z,82.62
2023-01-13T08:47:40.306Z,82.44
2023-01-13T08:48:37.100Z,81.40
2023-01-13T08:49:33.619Z,81.55
2023-01-13T08:50:30.099Z,82.26
2023-01-13T08:51:26.650Z,81.41
2023-01-13T08:52:23.320Z,81.08
2023-01-13T08:53:20.121Z,80.84
2023-01-13T08:54:17.333Z,80.68
2023-01-13T08:55:13.924Z,79.49
2023-01-13T08:56:11.848Z,79.84
2023-01-13T08:57:08.445Z,80.74
2023-01-13T08:58:15.237Z,79.86
2023-01-13T08:59:13.655Z,78.88
2023-01-13T09:00:10.562Z,78.29
2023-01-13T09:01:08.785Z,77.96
2023-01-13T09:02:12.739Z,78.90
2023-01-13T09:03:09.357Z,79.38
2023-01-13T09:04:06.209Z,79.67
2023-01-13T09:05:04.037Z,79.96
2023-01-13T09:06:00.511Z,79.35
2023-01-13T09:06:57.183Z,78.38
2023-01-13T09:07:53.654Z,78.73
2023-01-13T09:08:50.230Z,78.96
2023-01-13T09:09:46.721Z,79.00
2023-01-13T09:10:43.271Z,78.87
2023-01-13T09:12:00.604Z,77.84
2023-01-13T09:13:12.151Z,77.34
2023-01-13T09:14:08.741Z,78.45
2023-01-13T09:15:06.409Z,79.05
2023-01-13T09:16:02.963Z,79.66
2023-01-13T09:17:00.002Z,79.86
2023-01-13T09:17:56.497Z,79.69
2023-01-13T09:18:52.955Z,80.12
2023-01-13T09:19:50.635Z,78.87
2023-01-13T09:20:47.144Z,78.41
2023-01-13T09:21:43.687Z,79.46
2023-01-13T09:22:40.783Z,79.30
2023-01-13T09:23:37.260Z,80.00
2023-01-13T09:24:33.868Z,79.55
2023-01-13T09:25:30.901Z,79.51
2023-01-13T09:26:27.374Z,79.73
2023-01-13T09:27:24.029Z,79.98
2023-01-13T09:28:20.525Z,79.71
2023-01-13T09:29:17.316Z,78.57
2023-01-13T09:30:14.062Z,78.08
2023-01-13T09:31:10.553Z,77.88
2023-01-13T09:32:07.279Z,78.73
2023-01-13T09:33:22.566Z,79.61
2023-01-13T09:34:38.507Z,79.59
2023-01-13T09:35:36.077Z,78.37
2023-01-13T09:36:32.617Z,78.08
2023-01-13T09:37:30.933Z,79.18
2023-01-13T09:38:27.537Z,79.58
2023-01-13T09:39:24.142Z,79.60
2023-01-13T09:40:22.786Z,79.56
2023-01-13T09:41:38.667Z,79.50
2023-01-13T09:43:11.283Z,80.34
2023-01-13T09:44:10.213Z,80.25
2023-01-13T09:45:09.074Z,80.55
2023-01-13T09:46:32.422Z,78.61
2023-01-13T09:47:34.814Z,77.13
2023-01-13T09:48:51.979Z,78.19
2023-01-13T09:49:48.956Z,78.89
2023-01-13T09:50:48.391Z,79.15
2023-01-13T09:51:48.803Z,78.26
2023-01-13T09:52:45.319Z,78.45
2023-01-13T09:53:51.033Z,78.85
2023-01-13T09:55:11.488Z,78.88
2023-01-13T09:56:10.564Z,78.23
2023-01-13T09:57:13.211Z,79.21
2023-01-13T09:58:15.122Z,79.72
2023-01-13T09:59:12.276Z,80.38
2023-01-13T10:00:13.934Z,79.16
2023-01-13T10:01:24.054Z,79.76
2023-01-13T10:02:20.516Z,80.61
2023-01-13T10:03:21.720Z,80.21
2023-01-13T10:04:18.539Z,80.19
2023-01-13T10:05:20.831Z,80.15
2023-01-13T10:06:19.857Z,80.16
2023-01-13T10:07:16.573Z,81.11
2023-01-13T10:08:24.576Z,81.44
2023-01-13T10:09:24.204Z,80.38
2023-01-13T10:10:42.120Z,80.79
2023-01-13T10:11:59.127Z,81.29
2023-01-13T10:13:14.128Z,80.77
2023-01-13T10:14:10.650Z,79.61
2023-01-13T10:15:13.444Z,80.18
2023-01-13T10:16:19.113Z,79.93
2023-01-13T10:17:21.145Z,80.16
2023-01-13T10:18:36.075Z,79.48
2023-01-13T10:19:43.995Z,79.92
2023-01-13T10:20:56.084Z,80.65
2023-01-13T10:22:02.963Z,80.34
2023-01-13T10:23:02.427Z,81.09
2023-01-13T10:24:03.950Z,80.96
2023-01-13T10:25:26.730Z,81.04
2023-01-13T10:26:26.966Z,81.39
2023-01-13T10:27:27.925Z,81.72
2023-01-13T10:28:25.462Z,81.40
2023-01-13T10:29:26.365Z,80.36
2023-01-13T10:30:32.434Z,80.37
2023-01-13T10:31:29.073Z,81.00
2023-01-13T10:32:25.673Z,80.42
2023-01-13T10:33:26.947Z,79.98
2023-01-13T10:34:25.836Z,79.71
2023-01-13T10:35:43.177Z,79.78
2023-01-13T10:36:46.766Z,78.79
2023-01-13T10:37:55.486Z,79.86
2023-01-13T10:38:52.340Z,80.91
2023-01-13T10:39:49.228Z,81.00
2023-01-13T10:40:50.288Z,81.69
2023-01-13T10:41:46.742Z,81.77
2023-01-13T10:42:43.230Z,80.85
2023-01-13T10:43:39.894Z,80.57
2023-01-13T10:44:47.356Z,80.18
2023-01-13T10:45:52.698Z,80.94
2023-01-13T10:46:54.052Z,81.52
2023-01-13T10:48:05.322Z,81.04
2023-01-13T10:49:03.543Z,83.14
2023-01-13T10:50:00.013Z,83.45
2023-01-13T10:50:56.627Z,82.82
2023-01-13T10:51:53.083Z,82.83
2023-01-13T10:53:00.231Z,82.53
2023-01-13T10:54:01.787Z,81.70
2023-01-13T10:54:58.475Z,81.43
2023-01-13T10:55:59.681Z,81.70
2023-01-13T10:57:18.329Z,80.28
2023-01-13T10:58:18.941Z,80.88
2023-01-13T10:59:23.384Z,80.56
2023-01-13T11:00:27.731Z,79.73
2023-01-13T11:01:26.167Z,80.50
2023-01-13T11:02:30.867Z,81.28
2023-01-13T11:03:35.486Z,81.37
2023-01-13T11:04:36.869Z,81.62
2023-01-13T11:05:33.738Z,80.89
2023-01-13T11:06:31.075Z,81.01
2023-01-13T11:07:28.436Z,81.10
2023-01-13T11:08:26.658Z,80.51
2023-01-13T11:09:25.241Z,80.08
2023-01-13T11:10:21.971Z,79.73
2023-01-13T11:11:27.841Z,79.92
2023-01-13T11:12:30.935Z,79.39
2023-01-13T11:14:03.901Z,78.08
2023-01-13T11:15:05.940Z,78.89
2023-01-13T11:16:14.262Z,79.05
2023-01-13T11:17:16.268Z,79.05
2023-01-13T11:18:35.982Z,78.99
2023-01-13T11:19:33.661Z,79.56
2023-01-13T11:20:33.874Z,80.25
2023-01-13T11:21:36.660Z,79.91
2023-01-13T11:22:37.099Z,79.95
2023-01-13T11:23:42.467Z,79.53
2023-01-13T11:24:40.087Z,78.86
2023-01-13T11:25:44.012Z,78.73
2023-01-13T11:27:07.501Z,78.70
2023-01-13T11:28:06.575Z,78.47
2023-01-13T11:29:11.294Z,77.80
2023-01-13T11:30:16.377Z,78.06
2023-01-13T11:31:12.979Z,78.39
2023-01-13T11:32:12.233Z,78.74
2023-01-13T11:33:15.192Z,78.62
2023-01-13T11:34:25.529Z,77.64
2023-01-13T11:35:22.392Z,77.82
2023-01-13T11:36:24.962Z,78.62
2023-01-13T11:37:24.491Z,78.33
2023-01-13T11:38:34.046Z,78.50
2023-01-13T11:39:48.769Z,76.30
2023-01-13T11:40:49.479Z,75.80
2023-01-13T11:42:12.816Z,76.14
2023-01-13T11:43:32.303Z,76.85
2023-01-13T11:44:34.332Z,76.59
2023-01-13T11:45:53.868Z,75.24
2023-01-13T11:46:51.590Z,74.76
2023-01-13T11:47:49.551Z,74.84
2023-01-13T11:48:46.206Z,75.57
2023-01-13T11:49:48.534Z,75.68
2023-01-13T11:50:48.321Z,75.69
2023-01-13T11:51:55.529Z,74.99
2023-01-13T11:53:12.082Z,74.52
2023-01-13T11:54:22.614Z,74.62
2023-01-13T11:55:22.836Z,73.69
2023-01-13T11:56:27.249Z,73.30
2023-01-13T11:57:23.788Z,73.52
2023-01-13T11:58:33.827Z,72.82
2023-01-13T11:59:44.251Z,73.43
2023-01-13T12:00:40.793Z,73.13
2023-01-13T12:01:56.217Z,73.82
2023-01-13T12:03:07.815Z,73.78
2023-01-13T12:04:22.758Z,71.59
2023-01-13T12:05:24.217Z,73.30
2023-01-13T12:06:34.685Z,72.80
2023-01-13T12:07:34.242Z,72.92
2023-01-13T12:08:30.807Z,73.65
2023-01-13T12:09:36.607Z,74.04
2023-01-13T12:10:48.298Z,74.30
2023-01-13T12:12:15.523Z,75.22
2023-01-13T12:13:20.963Z,75.09
2023-01-13T12:14:30.946Z,76.13
2023-01-13T12:15:27.375Z,75.98
2023-01-13T12:16:28.557Z,76.09
2023-01-13T12:17:30.303Z,76.46
2023-01-13T12:18:26.804Z,76.05
2023-01-13T12:19:27.885Z,76.76
2023-01-13T12:20:42.749Z,75.67
2023-01-13T12:21:48.045Z,77.11
2023-01-13T12:22:46.792Z,76.64
2023-01-13T12:23:43.245Z,76.80
2023-01-13T12:24:39.738Z,76.83
2023-01-13T12:25:47.321Z,77.21
2023-01-13T12:26:46.485Z,76.96
2023-01-13T12:28:15.519Z,76.48
2023-01-13T12:29:19.180Z,75.94
2023-01-13T12:30:18.556Z,76.57
2023-01-13T12:31:18.805Z,77.42
2023-01-13T12:32:20.987Z,77.37
2023-01-13T12:33:20.588Z,77.58
2023-01-13T12:34:25.390Z,78.13
2023-01-13T12:35:24.567Z,77.91
2023-01-13T12:36:39.551Z,78.03
2023-01-13T12:37:36.015Z,78.86
2023-01-13T12:38:48.023Z,78.82
2023-01-13T12:40:03.050Z,79.32
2023-01-13T12:41:11.627Z,79.10
2023-01-13T12:42:29.669Z,78.65
2023-01-13T12:43:44.663Z,78.83
2023-01-13T12:44:59.641Z,79.70
2023-01-13T12:46:16.144Z,80.24
2023-01-13T12:47:32.645Z,80.30
2023-01-13T12:48:49.338Z,80.38
2023-01-13T12:49:47.271Z,81.15
2023-01-13T12:50:43.915Z,81.56
2023-01-13T12:51:52.712Z,81.72
2023-01-13T12:52:49.839Z,81.51
2023-01-13T12:53:46.417Z,82.08
2023-01-13T12:55:01.375Z,82.48
2023-01-13T12:56:16.719Z,82.30
2023-01-13T12:57:16.303Z,81.66
2023-01-13T12:58:12.758Z,82.36
2023-01-13T12:59:21.467Z,82.55
2023-01-13T13:00:18.281Z,82.24
2023-01-13T13:01:15.204Z,81.88
2023-01-13T13:02:11.931Z,81.97
2023-01-13T13:03:12.286Z,82.26